sensor_id;sensor_type;location;lat;lon;timestamp;temperature;humidity
52869;DHT22;39100;53.480;6.158;2023-05-29T00:02:07;11.50;99.90
52869;DHT22;39100;53.480;6.158;2023-05-29T00:04:33;11.50;99.90
52869;DHT22;39100;53.480;6.158;2023-05-29T00:06:59;11.50;99.90
52869;DHT22;39100;53.480;6.158;2023-05-29T00:09:24;11.50;99.90
52869;DHT22;39100;53.480;6.158;2023-05-29T00:11:50;11.50;99.90
52869;DHT22;39100;53.480;6.158;2023-05-29T00:14:21;11.50;99.90
52869;DHT22;39100;53.480;6.158;2023-05-29T00:16:48;11.50;99.90
52869;DHT22;39100;53.480;6.158;2023-05-29T00:19:14;11.50;99.90
52869;DHT22;39100;53.480;6.158;2023-05-29T00:21:42;11.50;99.90
52869;DHT22;39100;53.480;6.158;2023-05-29T00:24:08;11.50;99.90
52869;DHT22;39100;53.480;6.158;2023-05-29T00:26:34;11.50;99.90
52869;DHT22;39100;53.480;6.158;2023-05-29T00:29:00;11.50;99.90
52869;DHT22;39100;53.480;6.158;2023-05-29T00:31:25;11.50;99.90
52869;DHT22;39100;53.480;6.158;2023-05-29T00:33:51;11.50;99.90
52869;DHT22;39100;53.480;6.158;2023-05-29T00:36:17;11.50;99.90
52869;DHT22;39100;53.480;6.158;2023-05-29T00:38:43;11.90;99.90
52869;DHT22;39100;53.480;6.158;2023-05-29T00:41:14;11.40;99.90
52869;DHT22;39100;53.480;6.158;2023-05-29T00:43:41;11.50;99.90
52869;DHT22;39100;53.480;6.158;2023-05-29T00:46:07;11.50;99.90
52869;DHT22;39100;53.480;6.158;2023-05-29T00:48:33;11.50;99.90
52869;DHT22;39100;53.480;6.158;2023-05-29T00:50:59;11.50;99.90
52869;DHT22;39100;53.480;6.158;2023-05-29T00:53:25;11.50;99.90
52869;DHT22;39100;53.480;6.158;2023-05-29T00:55:51;11.50;99.90
52869;DHT22;39100;53.480;6.158;2023-05-29T00:58:18;11.50;99.90
52869;DHT22;39100;53.480;6.158;2023-05-29T01:00:44;11.50;99.90
52869;DHT22;39100;53.480;6.158;2023-05-29T01:03:10;11.60;99.90
52869;DHT22;39100;53.480;6.158;2023-05-29T01:05:40;11.60;99.90
52869;DHT22;39100;53.480;6.158;2023-05-29T01:08:06;11.60;99.90
52869;DHT22;39100;53.480;6.158;2023-05-29T01:10:33;11.60;99.90
52869;DHT22;39100;53.480;6.158;2023-05-29T01:13:13;11.60;99.90
52869;DHT22;39100;53.480;6.158;2023-05-29T01:15:54;11.60;99.90
52869;DHT22;39100;53.480;6.158;2023-05-29T01:21:56;11.60;99.90
52869;DHT22;39100;53.480;6.158;2023-05-29T01:24:26;11.60;99.90
52869;DHT22;39100;53.480;6.158;2023-05-29T01:27:10;11.60;99.90
52869;DHT22;39100;53.480;6.158;2023-05-29T01:29:39;11.60;99.90
52869;DHT22;39100;53.480;6.158;2023-05-29T01:32:05;11.60;99.90
52869;DHT22;39100;53.480;6.158;2023-05-29T01:34:32;11.60;99.90
52869;DHT22;39100;53.480;6.158;2023-05-29T01:36:57;11.60;99.90
52869;DHT22;39100;53.480;6.158;2023-05-29T01:39:24;11.60;99.90
52869;DHT22;39100;53.480;6.158;2023-05-29T01:41:50;11.60;99.90
52869;DHT22;39100;53.480;6.158;2023-05-29T01:44:17;11.50;99.90
52869;DHT22;39100;53.480;6.158;2023-05-29T01:46:43;11.50;99.90
52869;DHT22;39100;53.480;6.158;2023-05-29T01:49:11;11.50;99.90
52869;DHT22;39100;53.480;6.158;2023-05-29T01:51:39;11.50;99.90
52869;DHT22;39100;53.480;6.158;2023-05-29T01:54:06;11.50;99.90
52869;DHT22;39100;53.480;6.158;2023-05-29T01:56:32;11.50;99.90
52869;DHT22;39100;53.480;6.158;2023-05-29T01:58:59;11.50;99.90
52869;DHT22;39100;53.480;6.158;2023-05-29T02:01:26;11.50;99.90
52869;DHT22;39100;53.480;6.158;2023-05-29T02:03:52;11.50;99.90
52869;DHT22;39100;53.480;6.158;2023-05-29T02:06:17;11.50;99.90
52869;DHT22;39100;53.480;6.158;2023-05-29T02:08:43;11.50;99.90
52869;DHT22;39100;53.480;6.158;2023-05-29T02:11:09;11.50;99.90
52869;DHT22;39100;53.480;6.158;2023-05-29T02:13:34;11.50;99.90
52869;DHT22;39100;53.480;6.158;2023-05-29T02:16:00;11.50;99.90
52869;DHT22;39100;53.480;6.158;2023-05-29T02:18:26;11.60;99.90
52869;DHT22;39100;53.480;6.158;2023-05-29T02:20:52;11.50;99.90
52869;DHT22;39100;53.480;6.158;2023-05-29T02:23:17;11.60;99.90
52869;DHT22;39100;53.480;6.158;2023-05-29T02:25:44;11.60;99.90
52869;DHT22;39100;53.480;6.158;2023-05-29T02:28:10;11.60;99.90
52869;DHT22;39100;53.480;6.158;2023-05-29T02:30:36;11.60;99.90
52869;DHT22;39100;53.480;6.158;2023-05-29T02:33:01;11.60;99.90
52869;DHT22;39100;53.480;6.158;2023-05-29T02:35:27;11.60;99.90
52869;DHT22;39100;53.480;6.158;2023-05-29T02:37:53;11.60;99.90
52869;DHT22;39100;53.480;6.158;2023-05-29T02:40:19;11.60;99.90
52869;DHT22;39100;53.480;6.158;2023-05-29T02:42:45;11.80;99.90
52869;DHT22;39100;53.480;6.158;2023-05-29T02:45:11;11.50;99.90
52869;DHT22;39100;53.480;6.158;2023-05-29T02:47:37;11.50;99.90
52869;DHT22;39100;53.480;6.158;2023-05-29T02:50:03;11.50;99.90
52869;DHT22;39100;53.480;6.158;2023-05-29T02:52:29;11.40;99.90
52869;DHT22;39100;53.480;6.158;2023-05-29T02:54:56;11.40;99.90
52869;DHT22;39100;53.480;6.158;2023-05-29T02:57:22;11.40;99.90
52869;DHT22;39100;53.480;6.158;2023-05-29T02:59:48;11.30;99.90
52869;DHT22;39100;53.480;6.158;2023-05-29T03:02:14;11.40;99.90
52869;DHT22;39100;53.480;6.158;2023-05-29T03:04:39;11.40;99.90
52869;DHT22;39100;53.480;6.158;2023-05-29T03:07:05;11.40;99.90
52869;DHT22;39100;53.480;6.158;2023-05-29T03:09:32;11.40;99.90
52869;DHT22;39100;53.480;6.158;2023-05-29T03:11:57;11.40;99.90
52869;DHT22;39100;53.480;6.158;2023-05-29T03:14:23;11.40;99.90
52869;DHT22;39100;53.480;6.158;2023-05-29T03:16:49;11.30;99.90
52869;DHT22;39100;53.480;6.158;2023-05-29T03:19:15;11.30;99.90
52869;DHT22;39100;53.480;6.158;2023-05-29T03:21:41;11.30;99.90
52869;DHT22;39100;53.480;6.158;2023-05-29T03:24:07;11.30;99.90
52869;DHT22;39100;53.480;6.158;2023-05-29T03:26:32;11.30;99.90
52869;DHT22;39100;53.480;6.158;2023-05-29T03:28:58;11.30;99.90
52869;DHT22;39100;53.480;6.158;2023-05-29T03:31:23;11.30;99.90
52869;DHT22;39100;53.480;6.158;2023-05-29T03:33:49;11.30;99.90
52869;DHT22;39100;53.480;6.158;2023-05-29T03:36:15;11.30;99.90
52869;DHT22;39100;53.480;6.158;2023-05-29T03:38:43;11.20;99.90
52869;DHT22;39100;53.480;6.158;2023-05-29T03:41:08;11.30;99.90
52869;DHT22;39100;53.480;6.158;2023-05-29T03:43:34;11.30;99.90
52869;DHT22;39100;53.480;6.158;2023-05-29T03:46:00;11.20;99.90
52869;DHT22;39100;53.480;6.158;2023-05-29T03:48:25;11.20;99.90
52869;DHT22;39100;53.480;6.158;2023-05-29T03:50:51;11.20;99.90
52869;DHT22;39100;53.480;6.158;2023-05-29T03:53:16;11.20;99.90
52869;DHT22;39100;53.480;6.158;2023-05-29T03:55:42;11.20;99.90
52869;DHT22;39100;53.480;6.158;2023-05-29T03:58:07;11.20;99.90
52869;DHT22;39100;53.480;6.158;2023-05-29T04:00:33;11.20;99.90
52869;DHT22;39100;53.480;6.158;2023-05-29T04:02:58;11.20;99.90
52869;DHT22;39100;53.480;6.158;2023-05-29T04:05:24;11.20;99.90
52869;DHT22;39100;53.480;6.158;2023-05-29T04:07:52;11.20;99.90
52869;DHT22;39100;53.480;6.158;2023-05-29T04:10:17;11.30;99.90
52869;DHT22;39100;53.480;6.158;2023-05-29T04:12:43;11.20;99.90
52869;DHT22;39100;53.480;6.158;2023-05-29T04:15:09;11.20;99.90
52869;DHT22;39100;53.480;6.158;2023-05-29T04:17:34;11.20;99.90
52869;DHT22;39100;53.480;6.158;2023-05-29T04:20:00;11.20;99.90
52869;DHT22;39100;53.480;6.158;2023-05-29T04:22:31;11.20;99.90
52869;DHT22;39100;53.480;6.158;2023-05-29T04:24:56;11.20;99.90
52869;DHT22;39100;53.480;6.158;2023-05-29T04:27:22;11.30;99.90
52869;DHT22;39100;53.480;6.158;2023-05-29T04:29:48;11.30;99.90
52869;DHT22;39100;53.480;6.158;2023-05-29T04:32:13;11.40;99.90
52869;DHT22;39100;53.480;6.158;2023-05-29T04:34:39;11.40;99.90
52869;DHT22;39100;53.480;6.158;2023-05-29T04:37:05;11.30;99.90
52869;DHT22;39100;53.480;6.158;2023-05-29T04:39:31;11.30;99.90
52869;DHT22;39100;53.480;6.158;2023-05-29T04:41:57;11.40;99.90
52869;DHT22;39100;53.480;6.158;2023-05-29T04:44:26;11.40;99.90
52869;DHT22;39100;53.480;6.158;2023-05-29T04:46:52;11.40;99.90
52869;DHT22;39100;53.480;6.158;2023-05-29T04:49:18;11.40;99.90
52869;DHT22;39100;53.480;6.158;2023-05-29T04:51:44;11.50;99.90
52869;DHT22;39100;53.480;6.158;2023-05-29T04:54:11;11.50;99.90
52869;DHT22;39100;53.480;6.158;2023-05-29T04:56:36;11.50;99.90
52869;DHT22;39100;53.480;6.158;2023-05-29T04:59:03;11.50;99.90
52869;DHT22;39100;53.480;6.158;2023-05-29T05:01:28;11.50;99.90
52869;DHT22;39100;53.480;6.158;2023-05-29T05:03:54;11.50;99.90
52869;DHT22;39100;53.480;6.158;2023-05-29T05:06:22;11.60;99.90
52869;DHT22;39100;53.480;6.158;2023-05-29T05:08:50;11.60;99.90
52869;DHT22;39100;53.480;6.158;2023-05-29T05:11:17;11.60;99.90
52869;DHT22;39100;53.480;6.158;2023-05-29T05:13:43;11.60;99.90
52869;DHT22;39100;53.480;6.158;2023-05-29T05:16:09;11.60;99.90
52869;DHT22;39100;53.480;6.158;2023-05-29T05:18:35;11.70;99.90
52869;DHT22;39100;53.480;6.158;2023-05-29T05:21:01;11.70;99.90
52869;DHT22;39100;53.480;6.158;2023-05-29T05:23:28;11.70;99.90
52869;DHT22;39100;53.480;6.158;2023-05-29T05:25:54;11.70;99.90
52869;DHT22;39100;53.480;6.158;2023-05-29T05:28:19;11.80;99.90
52869;DHT22;39100;53.480;6.158;2023-05-29T05:30:45;11.80;99.90
52869;DHT22;39100;53.480;6.158;2023-05-29T05:33:11;11.80;99.90
52869;DHT22;39100;53.480;6.158;2023-05-29T05:35:37;11.80;99.90
52869;DHT22;39100;53.480;6.158;2023-05-29T05:38:02;11.80;99.90
52869;DHT22;39100;53.480;6.158;2023-05-29T05:40:28;11.90;99.90
52869;DHT22;39100;53.480;6.158;2023-05-29T05:42:53;11.80;99.90
52869;DHT22;39100;53.480;6.158;2023-05-29T05:45:19;11.90;99.90
52869;DHT22;39100;53.480;6.158;2023-05-29T05:47:46;11.90;99.90
52869;DHT22;39100;53.480;6.158;2023-05-29T05:50:12;11.90;99.90
52869;DHT22;39100;53.480;6.158;2023-05-29T05:52:38;11.90;99.90
52869;DHT22;39100;53.480;6.158;2023-05-29T05:55:04;12.00;99.90
52869;DHT22;39100;53.480;6.158;2023-05-29T05:57:29;12.00;99.90
52869;DHT22;39100;53.480;6.158;2023-05-29T05:59:58;12.10;99.90
52869;DHT22;39100;53.480;6.158;2023-05-29T06:02:23;12.10;99.90
52869;DHT22;39100;53.480;6.158;2023-05-29T06:04:49;12.20;99.90
52869;DHT22;39100;53.480;6.158;2023-05-29T06:07:15;12.30;99.90
52869;DHT22;39100;53.480;6.158;2023-05-29T06:09:41;12.40;99.90
52869;DHT22;39100;53.480;6.158;2023-05-29T06:12:07;12.40;99.90
52869;DHT22;39100;53.480;6.158;2023-05-29T06:14:34;12.40;99.90
52869;DHT22;39100;53.480;6.158;2023-05-29T06:17:00;12.50;99.90
52869;DHT22;39100;53.480;6.158;2023-05-29T06:19:26;12.50;99.90
52869;DHT22;39100;53.480;6.158;2023-05-29T06:21:51;12.50;99.90
52869;DHT22;39100;53.480;6.158;2023-05-29T06:24:17;12.60;99.90
52869;DHT22;39100;53.480;6.158;2023-05-29T06:26:42;12.60;99.90
52869;DHT22;39100;53.480;6.158;2023-05-29T06:29:08;12.60;99.90
52869;DHT22;39100;53.480;6.158;2023-05-29T06:31:33;12.70;99.90
52869;DHT22;39100;53.480;6.158;2023-05-29T06:33:59;12.70;99.90
52869;DHT22;39100;53.480;6.158;2023-05-29T06:36:25;12.80;99.90
52869;DHT22;39100;53.480;6.158;2023-05-29T06:38:51;12.80;99.90
52869;DHT22;39100;53.480;6.158;2023-05-29T06:41:17;12.80;99.90
52869;DHT22;39100;53.480;6.158;2023-05-29T06:43:43;12.90;99.90
52869;DHT22;39100;53.480;6.158;2023-05-29T06:46:09;13.00;99.90
52869;DHT22;39100;53.480;6.158;2023-05-29T06:48:35;13.00;99.90
52869;DHT22;39100;53.480;6.158;2023-05-29T06:51:04;13.20;99.90
52869;DHT22;39100;53.480;6.158;2023-05-29T06:53:41;13.20;99.90
52869;DHT22;39100;53.480;6.158;2023-05-29T06:56:06;13.30;99.90
52869;DHT22;39100;53.480;6.158;2023-05-29T06:58:33;13.30;99.90
52869;DHT22;39100;53.480;6.158;2023-05-29T07:00:59;13.40;99.90
52869;DHT22;39100;53.480;6.158;2023-05-29T07:03:26;13.30;99.90
52869;DHT22;39100;53.480;6.158;2023-05-29T07:05:52;13.40;99.90
52869;DHT22;39100;53.480;6.158;2023-05-29T07:08:18;13.40;99.90
52869;DHT22;39100;53.480;6.158;2023-05-29T07:10:43;13.40;99.90
52869;DHT22;39100;53.480;6.158;2023-05-29T07:13:09;13.50;99.90
52869;DHT22;39100;53.480;6.158;2023-05-29T07:15:34;13.60;99.90
52869;DHT22;39100;53.480;6.158;2023-05-29T07:18:00;13.70;99.90
52869;DHT22;39100;53.480;6.158;2023-05-29T07:20:26;13.80;99.90
52869;DHT22;39100;53.480;6.158;2023-05-29T07:22:51;13.90;99.90
52869;DHT22;39100;53.480;6.158;2023-05-29T07:25:17;13.90;99.90
52869;DHT22;39100;53.480;6.158;2023-05-29T07:27:42;13.90;99.90
52869;DHT22;39100;53.480;6.158;2023-05-29T07:30:09;14.00;99.90
52869;DHT22;39100;53.480;6.158;2023-05-29T07:32:34;14.10;99.90
52869;DHT22;39100;53.480;6.158;2023-05-29T07:35:00;14.10;99.90
52869;DHT22;39100;53.480;6.158;2023-05-29T07:37:25;14.00;99.90
52869;DHT22;39100;53.480;6.158;2023-05-29T07:39:51;14.00;99.90
52869;DHT22;39100;53.480;6.158;2023-05-29T07:42:16;14.00;99.90
52869;DHT22;39100;53.480;6.158;2023-05-29T07:44:42;14.00;99.90
52869;DHT22;39100;53.480;6.158;2023-05-29T07:47:09;14.00;99.90
52869;DHT22;39100;53.480;6.158;2023-05-29T07:49:34;14.00;99.90
52869;DHT22;39100;53.480;6.158;2023-05-29T07:52:01;14.00;99.90
52869;DHT22;39100;53.480;6.158;2023-05-29T07:54:27;14.00;99.90
52869;DHT22;39100;53.480;6.158;2023-05-29T07:56:53;14.10;99.90
52869;DHT22;39100;53.480;6.158;2023-05-29T07:59:18;14.10;99.90
52869;DHT22;39100;53.480;6.158;2023-05-29T08:01:44;14.10;99.90
52869;DHT22;39100;53.480;6.158;2023-05-29T08:04:10;14.20;99.90
52869;DHT22;39100;53.480;6.158;2023-05-29T08:06:36;14.40;99.90
52869;DHT22;39100;53.480;6.158;2023-05-29T08:09:02;14.20;99.90
52869;DHT22;39100;53.480;6.158;2023-05-29T08:11:28;14.20;99.90
52869;DHT22;39100;53.480;6.158;2023-05-29T08:13:54;14.30;99.90
52869;DHT22;39100;53.480;6.158;2023-05-29T08:16:20;14.30;99.90
52869;DHT22;39100;53.480;6.158;2023-05-29T08:18:47;14.30;99.90
52869;DHT22;39100;53.480;6.158;2023-05-29T08:21:13;14.40;99.90
52869;DHT22;39100;53.480;6.158;2023-05-29T08:23:39;14.40;99.90
52869;DHT22;39100;53.480;6.158;2023-05-29T08:26:05;14.40;99.90
52869;DHT22;39100;53.480;6.158;2023-05-29T08:28:31;14.50;99.90
52869;DHT22;39100;53.480;6.158;2023-05-29T08:30:56;14.50;99.90
52869;DHT22;39100;53.480;6.158;2023-05-29T08:33:22;14.50;99.90
52869;DHT22;39100;53.480;6.158;2023-05-29T08:35:47;14.40;99.90
52869;DHT22;39100;53.480;6.158;2023-05-29T08:38:13;15.10;99.90
52869;DHT22;39100;53.480;6.158;2023-05-29T08:40:39;14.40;99.90
52869;DHT22;39100;53.480;6.158;2023-05-29T08:43:13;14.40;99.90
52869;DHT22;39100;53.480;6.158;2023-05-29T08:45:43;14.50;99.90
52869;DHT22;39100;53.480;6.158;2023-05-29T08:48:10;14.50;99.90
52869;DHT22;39100;53.480;6.158;2023-05-29T08:50:40;14.50;99.90
52869;DHT22;39100;53.480;6.158;2023-05-29T08:53:09;14.40;99.90
52869;DHT22;39100;53.480;6.158;2023-05-29T08:55:35;14.60;99.90
52869;DHT22;39100;53.480;6.158;2023-05-29T08:58:01;14.60;99.90
52869;DHT22;39100;53.480;6.158;2023-05-29T09:00:27;14.80;99.90
52869;DHT22;39100;53.480;6.158;2023-05-29T09:02:55;15.10;99.90
52869;DHT22;39100;53.480;6.158;2023-05-29T09:05:25;15.20;99.90
52869;DHT22;39100;53.480;6.158;2023-05-29T09:07:53;15.20;99.90
52869;DHT22;39100;53.480;6.158;2023-05-29T09:10:19;15.30;99.90
52869;DHT22;39100;53.480;6.158;2023-05-29T09:12:46;15.90;99.90
52869;DHT22;39100;53.480;6.158;2023-05-29T09:15:22;15.70;99.90
52869;DHT22;39100;53.480;6.158;2023-05-29T09:17:55;15.90;99.90
52869;DHT22;39100;53.480;6.158;2023-05-29T09:20:23;16.00;99.90
52869;DHT22;39100;53.480;6.158;2023-05-29T09:25:20;16.20;99.90
52869;DHT22;39100;53.480;6.158;2023-05-29T09:27:50;16.40;99.90
52869;DHT22;39100;53.480;6.158;2023-05-29T09:33:10;16.80;99.90
52869;DHT22;39100;53.480;6.158;2023-05-29T09:35:38;16.80;99.90
52869;DHT22;39100;53.480;6.158;2023-05-29T09:38:06;17.30;99.90
52869;DHT22;39100;53.480;6.158;2023-05-29T09:40:41;17.00;99.90
52869;DHT22;39100;53.480;6.158;2023-05-29T09:43:17;17.00;99.90
52869;DHT22;39100;53.480;6.158;2023-05-29T09:45:48;17.00;99.90
52869;DHT22;39100;53.480;6.158;2023-05-29T09:48:21;17.00;99.90
52869;DHT22;39100;53.480;6.158;2023-05-29T09:50:47;17.30;99.90
52869;DHT22;39100;53.480;6.158;2023-05-29T09:53:17;17.20;99.90
52869;DHT22;39100;53.480;6.158;2023-05-29T09:55:45;17.80;99.90
52869;DHT22;39100;53.480;6.158;2023-05-29T09:58:14;17.60;99.90
52869;DHT22;39100;53.480;6.158;2023-05-29T10:00:41;17.60;99.90
52869;DHT22;39100;53.480;6.158;2023-05-29T10:03:07;17.60;99.90
52869;DHT22;39100;53.480;6.158;2023-05-29T10:05:32;17.50;99.90
52869;DHT22;39100;53.480;6.158;2023-05-29T10:07:59;17.60;99.90
52869;DHT22;39100;53.480;6.158;2023-05-29T10:10:29;17.70;99.90
52869;DHT22;39100;53.480;6.158;2023-05-29T10:12:56;17.80;99.90
52869;DHT22;39100;53.480;6.158;2023-05-29T10:15:23;17.90;99.90
52869;DHT22;39100;53.480;6.158;2023-05-29T10:18:03;17.90;99.90
52869;DHT22;39100;53.480;6.158;2023-05-29T10:20:31;17.90;99.90
52869;DHT22;39100;53.480;6.158;2023-05-29T10:23:00;18.00;99.90
52869;DHT22;39100;53.480;6.158;2023-05-29T10:25:30;18.20;99.90
52869;DHT22;39100;53.480;6.158;2023-05-29T10:27:57;18.20;99.90
52869;DHT22;39100;53.480;6.158;2023-05-29T10:30:37;18.20;99.90
52869;DHT22;39100;53.480;6.158;2023-05-29T10:33:20;18.20;99.90
52869;DHT22;39100;53.480;6.158;2023-05-29T10:38:18;18.10;99.90
52869;DHT22;39100;53.480;6.158;2023-05-29T10:40:45;18.10;99.90
52869;DHT22;39100;53.480;6.158;2023-05-29T10:43:37;18.20;99.90
52869;DHT22;39100;53.480;6.158;2023-05-29T10:46:05;18.30;99.90
52869;DHT22;39100;53.480;6.158;2023-05-29T10:48:41;18.20;99.90
52869;DHT22;39100;53.480;6.158;2023-05-29T10:51:07;18.50;99.90
52869;DHT22;39100;53.480;6.158;2023-05-29T10:53:34;18.40;99.90
52869;DHT22;39100;53.480;6.158;2023-05-29T10:56:00;18.40;99.90
52869;DHT22;39100;53.480;6.158;2023-05-29T10:58:30;18.50;99.90
52869;DHT22;39100;53.480;6.158;2023-05-29T11:03:35;18.50;99.90
52869;DHT22;39100;53.480;6.158;2023-05-29T11:06:16;18.50;99.90
52869;DHT22;39100;53.480;6.158;2023-05-29T11:11:12;18.60;99.90
52869;DHT22;39100;53.480;6.158;2023-05-29T11:13:39;18.70;99.90
52869;DHT22;39100;53.480;6.158;2023-05-29T11:16:10;18.70;99.90
52869;DHT22;39100;53.480;6.158;2023-05-29T11:18:39;18.80;99.90
52869;DHT22;39100;53.480;6.158;2023-05-29T11:21:15;18.90;99.90
52869;DHT22;39100;53.480;6.158;2023-05-29T11:23:42;18.90;99.90
52869;DHT22;39100;53.480;6.158;2023-05-29T11:26:11;19.00;99.90
52869;DHT22;39100;53.480;6.158;2023-05-29T11:28:37;19.10;99.90
52869;DHT22;39100;53.480;6.158;2023-05-29T11:31:08;19.10;99.90
52869;DHT22;39100;53.480;6.158;2023-05-29T11:33:38;19.10;99.90
52869;DHT22;39100;53.480;6.158;2023-05-29T11:36:05;19.40;99.90
52869;DHT22;39100;53.480;6.158;2023-05-29T11:38:32;19.50;99.90
52869;DHT22;39100;53.480;6.158;2023-05-29T11:40:57;19.60;99.90
52869;DHT22;39100;53.480;6.158;2023-05-29T11:43:26;19.70;99.90
52869;DHT22;39100;53.480;6.158;2023-05-29T11:45:51;20.00;99.90
52869;DHT22;39100;53.480;6.158;2023-05-29T11:48:17;20.60;99.90
52869;DHT22;39100;53.480;6.158;2023-05-29T11:50:43;20.20;99.90
52869;DHT22;39100;53.480;6.158;2023-05-29T11:53:09;20.60;99.90
52869;DHT22;39100;53.480;6.158;2023-05-29T11:55:34;20.60;99.90
52869;DHT22;39100;53.480;6.158;2023-05-29T11:58:03;20.80;99.90
52869;DHT22;39100;53.480;6.158;2023-05-29T12:00:34;21.10;99.90
52869;DHT22;39100;53.480;6.158;2023-05-29T12:03:00;21.40;99.90
52869;DHT22;39100;53.480;6.158;2023-05-29T12:05:43;21.20;99.90
52869;DHT22;39100;53.480;6.158;2023-05-29T12:08:09;21.10;99.90
52869;DHT22;39100;53.480;6.158;2023-05-29T12:10:35;21.70;99.90
52869;DHT22;39100;53.480;6.158;2023-05-29T12:13:00;21.20;99.90
52869;DHT22;39100;53.480;6.158;2023-05-29T12:15:26;21.30;99.90
52869;DHT22;39100;53.480;6.158;2023-05-29T12:17:53;21.30;99.90
52869;DHT22;39100;53.480;6.158;2023-05-29T12:20:22;21.40;99.90
52869;DHT22;39100;53.480;6.158;2023-05-29T12:22:48;21.60;99.90
52869;DHT22;39100;53.480;6.158;2023-05-29T12:25:19;21.70;99.90
52869;DHT22;39100;53.480;6.158;2023-05-29T12:27:45;21.60;99.90
52869;DHT22;39100;53.480;6.158;2023-05-29T12:30:30;21.60;99.90
52869;DHT22;39100;53.480;6.158;2023-05-29T12:32:56;21.30;99.90
52869;DHT22;39100;53.480;6.158;2023-05-29T12:35:23;21.20;99.90
52869;DHT22;39100;53.480;6.158;2023-05-29T12:37:53;21.20;99.90
52869;DHT22;39100;53.480;6.158;2023-05-29T12:40:23;20.70;99.90
52869;DHT22;39100;53.480;6.158;2023-05-29T12:42:59;20.50;99.90
52869;DHT22;39100;53.480;6.158;2023-05-29T12:45:27;20.60;99.90
52869;DHT22;39100;53.480;6.158;2023-05-29T12:47:54;20.40;99.90
52869;DHT22;39100;53.480;6.158;2023-05-29T12:50:21;20.30;99.90
52869;DHT22;39100;53.480;6.158;2023-05-29T12:53:00;20.40;99.90
52869;DHT22;39100;53.480;6.158;2023-05-29T12:55:28;20.30;99.90
52869;DHT22;39100;53.480;6.158;2023-05-29T12:57:55;20.10;99.90
52869;DHT22;39100;53.480;6.158;2023-05-29T13:00:21;20.10;99.90
52869;DHT22;39100;53.480;6.158;2023-05-29T13:02:48;20.10;99.90
52869;DHT22;39100;53.480;6.158;2023-05-29T13:05:14;20.20;99.90
52869;DHT22;39100;53.480;6.158;2023-05-29T13:07:41;20.10;99.90
52869;DHT22;39100;53.480;6.158;2023-05-29T13:10:07;20.20;99.90
52869;DHT22;39100;53.480;6.158;2023-05-29T13:12:34;20.00;99.90
52869;DHT22;39100;53.480;6.158;2023-05-29T13:15:00;20.00;99.90
52869;DHT22;39100;53.480;6.158;2023-05-29T13:17:26;20.00;99.90
52869;DHT22;39100;53.480;6.158;2023-05-29T13:19:51;19.80;99.90
52869;DHT22;39100;53.480;6.158;2023-05-29T13:22:17;19.90;99.90
52869;DHT22;39100;53.480;6.158;2023-05-29T13:24:42;19.70;99.90
52869;DHT22;39100;53.480;6.158;2023-05-29T13:27:08;19.60;99.90
52869;DHT22;39100;53.480;6.158;2023-05-29T13:29:34;19.90;99.90
52869;DHT22;39100;53.480;6.158;2023-05-29T13:32:00;19.60;99.90
52869;DHT22;39100;53.480;6.158;2023-05-29T13:34:26;19.50;99.90
52869;DHT22;39100;53.480;6.158;2023-05-29T13:36:57;19.50;99.90
52869;DHT22;39100;53.480;6.158;2023-05-29T13:39:23;19.50;99.90
52869;DHT22;39100;53.480;6.158;2023-05-29T13:41:50;19.40;99.90
52869;DHT22;39100;53.480;6.158;2023-05-29T13:44:15;19.30;99.90
52869;DHT22;39100;53.480;6.158;2023-05-29T13:46:41;19.40;99.90
52869;DHT22;39100;53.480;6.158;2023-05-29T13:49:07;19.20;99.90
52869;DHT22;39100;53.480;6.158;2023-05-29T13:51:33;19.30;99.90
52869;DHT22;39100;53.480;6.158;2023-05-29T13:53:59;19.40;99.90
52869;DHT22;39100;53.480;6.158;2023-05-29T13:56:24;19.20;99.90
52869;DHT22;39100;53.480;6.158;2023-05-29T13:58:52;19.60;99.90
52869;DHT22;39100;53.480;6.158;2023-05-29T14:01:18;19.20;99.90
52869;DHT22;39100;53.480;6.158;2023-05-29T14:03:45;19.30;99.90
52869;DHT22;39100;53.480;6.158;2023-05-29T14:06:11;19.10;99.90
52869;DHT22;39100;53.480;6.158;2023-05-29T14:08:37;19.00;99.90
52869;DHT22;39100;53.480;6.158;2023-05-29T14:11:02;18.90;99.90
52869;DHT22;39100;53.480;6.158;2023-05-29T14:13:28;18.80;99.90
52869;DHT22;39100;53.480;6.158;2023-05-29T14:15:54;18.20;99.90
52869;DHT22;39100;53.480;6.158;2023-05-29T14:18:21;18.60;99.90
52869;DHT22;39100;53.480;6.158;2023-05-29T14:20:47;18.60;99.90
52869;DHT22;39100;53.480;6.158;2023-05-29T14:23:14;18.60;99.90
52869;DHT22;39100;53.480;6.158;2023-05-29T14:25:41;18.60;99.90
52869;DHT22;39100;53.480;6.158;2023-05-29T14:28:07;18.60;99.90
52869;DHT22;39100;53.480;6.158;2023-05-29T14:30:32;18.80;99.90
52869;DHT22;39100;53.480;6.158;2023-05-29T14:32:58;18.70;99.90
52869;DHT22;39100;53.480;6.158;2023-05-29T14:35:25;18.70;99.90
52869;DHT22;39100;53.480;6.158;2023-05-29T14:37:51;18.70;99.90
52869;DHT22;39100;53.480;6.158;2023-05-29T14:40:16;18.80;99.90
52869;DHT22;39100;53.480;6.158;2023-05-29T14:42:42;18.80;99.90
52869;DHT22;39100;53.480;6.158;2023-05-29T14:45:08;18.80;99.90
52869;DHT22;39100;53.480;6.158;2023-05-29T14:47:34;18.80;99.90
52869;DHT22;39100;53.480;6.158;2023-05-29T14:50:00;18.80;99.90
52869;DHT22;39100;53.480;6.158;2023-05-29T14:52:25;18.70;99.90
52869;DHT22;39100;53.480;6.158;2023-05-29T14:54:51;19.60;99.90
52869;DHT22;39100;53.480;6.158;2023-05-29T14:57:17;18.80;99.90
52869;DHT22;39100;53.480;6.158;2023-05-29T14:59:42;18.60;99.90
52869;DHT22;39100;53.480;6.158;2023-05-29T15:02:08;18.50;99.90
52869;DHT22;39100;53.480;6.158;2023-05-29T15:04:35;18.90;99.90
52869;DHT22;39100;53.480;6.158;2023-05-29T15:07:01;18.50;99.90
52869;DHT22;39100;53.480;6.158;2023-05-29T15:09:26;18.50;99.90
52869;DHT22;39100;53.480;6.158;2023-05-29T15:11:52;18.50;99.90
52869;DHT22;39100;53.480;6.158;2023-05-29T15:14:17;18.30;99.90
52869;DHT22;39100;53.480;6.158;2023-05-29T15:16:44;18.30;99.90
52869;DHT22;39100;53.480;6.158;2023-05-29T15:19:10;18.30;99.90
52869;DHT22;39100;53.480;6.158;2023-05-29T15:21:36;18.30;99.90
52869;DHT22;39100;53.480;6.158;2023-05-29T15:24:02;18.30;99.90
52869;DHT22;39100;53.480;6.158;2023-05-29T15:26:28;18.30;99.90
52869;DHT22;39100;53.480;6.158;2023-05-29T15:28:53;18.10;99.90
52869;DHT22;39100;53.480;6.158;2023-05-29T15:31:20;18.10;99.90
52869;DHT22;39100;53.480;6.158;2023-05-29T15:33:48;18.00;99.90
52869;DHT22;39100;53.480;6.158;2023-05-29T15:36:14;17.90;99.90
52869;DHT22;39100;53.480;6.158;2023-05-29T15:38:41;18.00;99.90
52869;DHT22;39100;53.480;6.158;2023-05-29T15:41:07;18.00;99.90
52869;DHT22;39100;53.480;6.158;2023-05-29T15:43:33;17.70;99.90
52869;DHT22;39100;53.480;6.158;2023-05-29T15:45:59;17.70;99.90